sensor_id;sensor_type;location;lat;lon;timestamp;P1;durP1;ratioP1;P2;durP2;ratioP2
44732;SDS011;30460;50.836;4.390;2023-02-15T00:01:12;49.87;;;30.73;;
44732;SDS011;30460;50.836;4.390;2023-02-15T00:03:38;47.10;;;31.67;;
44732;SDS011;30460;50.836;4.390;2023-02-15T00:06:04;48.17;;;30.40;;
44732;SDS011;30460;50.836;4.390;2023-02-15T00:08:30;45.43;;;30.07;;
44732;SDS011;30460;50.836;4.390;2023-02-15T00:11:06;47.40;;;30.97;;
44732;SDS011;30460;50.836;4.390;2023-02-15T00:13:32;45.43;;;29.47;;
44732;SDS011;30460;50.836;4.390;2023-02-15T00:16:02;42.67;;;29.40;;
44732;SDS011;30460;50.836;4.390;2023-02-15T00:18:29;46.50;;;30.90;;
44732;SDS011;30460;50.836;4.390;2023-02-15T00:20:55;44.60;;;29.30;;
44732;SDS011;30460;50.836;4.390;2023-02-15T00:23:21;48.20;;;29.20;;
44732;SDS011;30460;50.836;4.390;2023-02-15T00:25:47;46.87;;;31.27;;
44732;SDS011;30460;50.836;4.390;2023-02-15T00:28:13;46.13;;;29.83;;
44732;SDS011;30460;50.836;4.390;2023-02-15T00:30:39;44.87;;;29.23;;
44732;SDS011;30460;50.836;4.390;2023-02-15T00:33:05;50.07;;;30.43;;
44732;SDS011;30460;50.836;4.390;2023-02-15T00:35:31;45.80;;;28.63;;
44732;SDS011;30460;50.836;4.390;2023-02-15T00:37:57;43.23;;;27.97;;
44732;SDS011;30460;50.836;4.390;2023-02-15T00:40:23;45.17;;;28.73;;
44732;SDS011;30460;50.836;4.390;2023-02-15T00:42:49;48.87;;;30.13;;
44732;SDS011;30460;50.836;4.390;2023-02-15T00:45:16;43.93;;;28.80;;
44732;SDS011;30460;50.836;4.390;2023-02-15T00:47:42;40.03;;;28.53;;
44732;SDS011;30460;50.836;4.390;2023-02-15T00:50:08;46.03;;;28.03;;
44732;SDS011;30460;50.836;4.390;2023-02-15T00:52:35;43.67;;;28.40;;
44732;SDS011;30460;50.836;4.390;2023-02-15T00:55:01;45.17;;;27.33;;
44732;SDS011;30460;50.836;4.390;2023-02-15T00:57:27;45.53;;;26.60;;
44732;SDS011;30460;50.836;4.390;2023-02-15T00:59:54;48.20;;;29.83;;
44732;SDS011;30460;50.836;4.390;2023-02-15T01:02:20;45.00;;;28.47;;
44732;SDS011;30460;50.836;4.390;2023-02-15T01:04:46;46.23;;;29.73;;
44732;SDS011;30460;50.836;4.390;2023-02-15T01:07:12;43.93;;;28.83;;
44732;SDS011;30460;50.836;4.390;2023-02-15T01:09:38;43.90;;;27.93;;
44732;SDS011;30460;50.836;4.390;2023-02-15T01:12:04;46.37;;;28.73;;
44732;SDS011;30460;50.836;4.390;2023-02-15T01:14:30;43.40;;;27.77;;
44732;SDS011;30460;50.836;4.390;2023-02-15T01:16:56;50.57;;;29.80;;
44732;SDS011;30460;50.836;4.390;2023-02-15T01:19:22;48.33;;;29.33;;
44732;SDS011;30460;50.836;4.390;2023-02-15T01:21:48;43.33;;;27.10;;
44732;SDS011;30460;50.836;4.390;2023-02-15T01:24:14;43.23;;;27.03;;
44732;SDS011;30460;50.836;4.390;2023-02-15T01:26:40;41.63;;;26.27;;
44732;SDS011;30460;50.836;4.390;2023-02-15T01:29:06;42.67;;;27.20;;
44732;SDS011;30460;50.836;4.390;2023-02-15T01:31:32;46.43;;;28.23;;
44732;SDS011;30460;50.836;4.390;2023-02-15T01:33:58;41.80;;;28.30;;
44732;SDS011;30460;50.836;4.390;2023-02-15T01:36:24;43.77;;;27.10;;
44732;SDS011;30460;50.836;4.390;2023-02-15T01:38:50;41.87;;;28.10;;
44732;SDS011;30460;50.836;4.390;2023-02-15T01:41:16;43.00;;;26.53;;
44732;SDS011;30460;50.836;4.390;2023-02-15T01:43:46;42.93;;;27.97;;
44732;SDS011;30460;50.836;4.390;2023-02-15T01:46:14;40.53;;;26.60;;
44732;SDS011;30460;50.836;4.390;2023-02-15T01:48:51;41.43;;;26.63;;
44732;SDS011;30460;50.836;4.390;2023-02-15T01:51:19;45.37;;;28.67;;
44732;SDS011;30460;50.836;4.390;2023-02-15T01:53:52;40.70;;;26.30;;
44732;SDS011;30460;50.836;4.390;2023-02-15T01:56:27;39.70;;;24.90;;
44732;SDS011;30460;50.836;4.390;2023-02-15T01:58:55;40.23;;;26.17;;
44732;SDS011;30460;50.836;4.390;2023-02-15T02:01:23;42.37;;;25.97;;
44732;SDS011;30460;50.836;4.390;2023-02-15T02:03:53;42.83;;;26.30;;
44732;SDS011;30460;50.836;4.390;2023-02-15T02:06:21;41.63;;;26.13;;
44732;SDS011;30460;50.836;4.390;2023-02-15T02:08:47;42.40;;;25.97;;
44732;SDS011;30460;50.836;4.390;2023-02-15T02:11:14;37.67;;;25.50;;
44732;SDS011;30460;50.836;4.390;2023-02-15T02:13:40;42.37;;;26.53;;
44732;SDS011;30460;50.836;4.390;2023-02-15T02:36:11;41.87;;;27.27;;
44732;SDS011;30460;50.836;4.390;2023-02-15T02:41:20;39.93;;;26.47;;
44732;SDS011;30460;50.836;4.390;2023-02-15T02:43:54;40.23;;;26.37;;
44732;SDS011;30460;50.836;4.390;2023-02-15T02:47:07;42.17;;;27.17;;
44732;SDS011;30460;50.836;4.390;2023-02-15T02:49:13;39.63;;;26.80;;
44732;SDS011;30460;50.836;4.390;2023-02-15T02:51:39;39.73;;;26.43;;
44732;SDS011;30460;50.836;4.390;2023-02-15T02:54:05;42.57;;;27.67;;
44732;SDS011;30460;50.836;4.390;2023-02-15T02:56:42;46.33;;;27.73;;
44732;SDS011;30460;50.836;4.390;2023-02-15T02:59:12;43.37;;;29.70;;
44732;SDS011;30460;50.836;4.390;2023-02-15T03:01:41;42.87;;;28.83;;
44732;SDS011;30460;50.836;4.390;2023-02-15T03:04:30;40.20;;;28.03;;
44732;SDS011;30460;50.836;4.390;2023-02-15T03:06:58;41.33;;;27.43;;
44732;SDS011;30460;50.836;4.390;2023-02-15T03:09:29;43.63;;;27.77;;
44732;SDS011;30460;50.836;4.390;2023-02-15T03:12:07;41.13;;;27.87;;
44732;SDS011;30460;50.836;4.390;2023-02-15T03:14:34;38.97;;;26.23;;
44732;SDS011;30460;50.836;4.390;2023-02-15T03:17:01;38.07;;;26.23;;
44732;SDS011;30460;50.836;4.390;2023-02-15T03:19:29;40.00;;;26.83;;
44732;SDS011;30460;50.836;4.390;2023-02-15T03:22:07;41.43;;;27.17;;
44732;SDS011;30460;50.836;4.390;2023-02-15T03:27:00;42.80;;;28.03;;
44732;SDS011;30460;50.836;4.390;2023-02-15T03:29:28;43.37;;;27.67;;
44732;SDS011;30460;50.836;4.390;2023-02-15T03:31:57;40.63;;;27.17;;
44732;SDS011;30460;50.836;4.390;2023-02-15T03:34:24;40.67;;;27.23;;
44732;SDS011;30460;50.836;4.390;2023-02-15T03:36:53;40.40;;;28.50;;
44732;SDS011;30460;50.836;4.390;2023-02-15T03:39:34;39.70;;;26.47;;
44732;SDS011;30460;50.836;4.390;2023-02-15T03:42:16;41.13;;;27.80;;
44732;SDS011;30460;50.836;4.390;2023-02-15T03:47:15;42.47;;;27.13;;
44732;SDS011;30460;50.836;4.390;2023-02-15T03:49:46;41.40;;;27.00;;
44732;SDS011;30460;50.836;4.390;2023-02-15T03:52:14;40.27;;;26.60;;
44732;SDS011;30460;50.836;4.390;2023-02-15T03:54:41;42.40;;;28.87;;
44732;SDS011;30460;50.836;4.390;2023-02-15T03:57:15;39.37;;;26.77;;
44732;SDS011;30460;50.836;4.390;2023-02-15T04:00:02;35.90;;;26.00;;
44732;SDS011;30460;50.836;4.390;2023-02-15T04:02:53;38.70;;;27.13;;
44732;SDS011;30460;50.836;4.390;2023-02-15T04:05:22;40.43;;;27.27;;
44732;SDS011;30460;50.836;4.390;2023-02-15T04:07:48;39.90;;;26.73;;
44732;SDS011;30460;50.836;4.390;2023-02-15T04:10:14;38.50;;;25.83;;
44732;SDS011;30460;50.836;4.390;2023-02-15T04:12:59;46.17;;;28.03;;
44732;SDS011;30460;50.836;4.390;2023-02-15T04:15:25;37.80;;;25.43;;
44732;SDS011;30460;50.836;4.390;2023-02-15T04:18:10;39.63;;;27.33;;
44732;SDS011;30460;50.836;4.390;2023-02-15T04:20:36;38.00;;;27.07;;
44732;SDS011;30460;50.836;4.390;2023-02-15T04:23:20;37.60;;;26.20;;
44732;SDS011;30460;50.836;4.390;2023-02-15T04:26:05;37.10;;;25.30;;
44732;SDS011;30460;50.836;4.390;2023-02-15T04:28:31;40.63;;;27.23;;
44732;SDS011;30460;50.836;4.390;2023-02-15T04:30:57;39.37;;;26.73;;
44732;SDS011;30460;50.836;4.390;2023-02-15T04:33:23;41.87;;;27.60;;
44732;SDS011;30460;50.836;4.390;2023-02-15T04:35:49;39.67;;;26.93;;
44732;SDS011;30460;50.836;4.390;2023-02-15T04:38:15;39.33;;;26.83;;
44732;SDS011;30460;50.836;4.390;2023-02-15T04:40:41;42.20;;;27.70;;
44732;SDS011;30460;50.836;4.390;2023-02-15T04:43:07;41.83;;;26.43;;
44732;SDS011;30460;50.836;4.390;2023-02-15T04:45:33;39.77;;;26.23;;
44732;SDS011;30460;50.836;4.390;2023-02-15T04:47:59;37.13;;;25.90;;
44732;SDS011;30460;50.836;4.390;2023-02-15T04:50:25;42.10;;;26.40;;
44732;SDS011;30460;50.836;4.390;2023-02-15T04:52:51;38.30;;;25.80;;
44732;SDS011;30460;50.836;4.390;2023-02-15T04:55:17;37.50;;;26.87;;
44732;SDS011;30460;50.836;4.390;2023-02-15T04:57:43;38.70;;;27.53;;
44732;SDS011;30460;50.836;4.390;2023-02-15T05:00:09;43.77;;;27.73;;
44732;SDS011;30460;50.836;4.390;2023-02-15T05:02:35;36.77;;;26.47;;
44732;SDS011;30460;50.836;4.390;2023-02-15T05:05:01;39.83;;;28.13;;
44732;SDS011;30460;50.836;4.390;2023-02-15T05:07:27;39.07;;;26.23;;
44732;SDS011;30460;50.836;4.390;2023-02-15T05:09:53;40.33;;;27.63;;
44732;SDS011;30460;50.836;4.390;2023-02-15T05:12:19;39.80;;;27.70;;
44732;SDS011;30460;50.836;4.390;2023-02-15T05:14:45;39.23;;;27.30;;
44732;SDS011;30460;50.836;4.390;2023-02-15T05:17:11;40.77;;;28.10;;
44732;SDS011;30460;50.836;4.390;2023-02-15T05:19:37;40.13;;;27.80;;
44732;SDS011;30460;50.836;4.390;2023-02-15T05:22:03;38.87;;;28.03;;
44732;SDS011;30460;50.836;4.390;2023-02-15T05:24:29;40.23;;;29.17;;
44732;SDS011;30460;50.836;4.390;2023-02-15T05:27:14;40.13;;;28.37;;
44732;SDS011;30460;50.836;4.390;2023-02-15T05:29:59;41.57;;;28.93;;
44732;SDS011;30460;50.836;4.390;2023-02-15T05:32:25;40.77;;;29.40;;
44732;SDS011;30460;50.836;4.390;2023-02-15T05:34:51;38.07;;;28.00;;
44732;SDS011;30460;50.836;4.390;2023-02-15T05:37:17;42.70;;;28.53;;
44732;SDS011;30460;50.836;4.390;2023-02-15T05:39:43;41.10;;;28.87;;
44732;SDS011;30460;50.836;4.390;2023-02-15T05:42:09;39.73;;;27.27;;
44732;SDS011;30460;50.836;4.390;2023-02-15T05:44:35;41.73;;;28.47;;
44732;SDS011;30460;50.836;4.390;2023-02-15T05:47:01;41.73;;;29.20;;
44732;SDS011;30460;50.836;4.390;2023-02-15T05:49:28;41.03;;;28.20;;
44732;SDS011;30460;50.836;4.390;2023-02-15T05:51:55;37.97;;;27.20;;
44732;SDS011;30460;50.836;4.390;2023-02-15T05:54:21;41.83;;;28.00;;
44732;SDS011;30460;50.836;4.390;2023-02-15T05:56:47;40.90;;;27.83;;
44732;SDS011;30460;50.836;4.390;2023-02-15T05:59:14;42.10;;;28.37;;
44732;SDS011;30460;50.836;4.390;2023-02-15T06:01:40;42.23;;;29.00;;
44732;SDS011;30460;50.836;4.390;2023-02-15T06:04:07;41.70;;;28.37;;
44732;SDS011;30460;50.836;4.390;2023-02-15T06:06:33;43.33;;;26.73;;
44732;SDS011;30460;50.836;4.390;2023-02-15T06:08:59;45.40;;;29.63;;
44732;SDS011;30460;50.836;4.390;2023-02-15T06:11:25;39.77;;;28.13;;
44732;SDS011;30460;50.836;4.390;2023-02-15T06:13:51;44.47;;;28.57;;
44732;SDS011;30460;50.836;4.390;2023-02-15T06:16:17;43.60;;;28.63;;
44732;SDS011;30460;50.836;4.390;2023-02-15T06:18:43;44.63;;;29.30;;
44732;SDS011;30460;50.836;4.390;2023-02-15T06:21:09;42.20;;;29.13;;
44732;SDS011;30460;50.836;4.390;2023-02-15T06:23:35;39.23;;;27.57;;
44732;SDS011;30460;50.836;4.390;2023-02-15T06:26:01;40.77;;;27.60;;
44732;SDS011;30460;50.836;4.390;2023-02-15T06:28:27;45.37;;;28.37;;
44732;SDS011;30460;50.836;4.390;2023-02-15T06:30:53;41.70;;;27.50;;
44732;SDS011;30460;50.836;4.390;2023-02-15T06:33:22;42.50;;;27.43;;
44732;SDS011;30460;50.836;4.390;2023-02-15T06:35:48;45.47;;;30.43;;
44732;SDS011;30460;50.836;4.390;2023-02-15T06:38:14;40.10;;;26.97;;
44732;SDS011;30460;50.836;4.390;2023-02-15T06:40:41;40.73;;;27.33;;
44732;SDS011;30460;50.836;4.390;2023-02-15T06:43:07;41.93;;;27.00;;
44732;SDS011;30460;50.836;4.390;2023-02-15T06:45:33;45.53;;;28.73;;
44732;SDS011;30460;50.836;4.390;2023-02-15T06:47:59;39.67;;;28.80;;
44732;SDS011;30460;50.836;4.390;2023-02-15T06:50:25;42.53;;;28.30;;
44732;SDS011;30460;50.836;4.390;2023-02-15T06:52:55;40.77;;;27.93;;
44732;SDS011;30460;50.836;4.390;2023-02-15T06:55:21;38.53;;;27.10;;
44732;SDS011;30460;50.836;4.390;2023-02-15T06:57:47;44.67;;;27.53;;
44732;SDS011;30460;50.836;4.390;2023-02-15T07:00:13;41.43;;;27.57;;
44732;SDS011;30460;50.836;4.390;2023-02-15T07:02:40;40.37;;;26.83;;
44732;SDS011;30460;50.836;4.390;2023-02-15T07:05:07;42.13;;;25.53;;
44732;SDS011;30460;50.836;4.390;2023-02-15T07:07:33;45.83;;;27.97;;
44732;SDS011;30460;50.836;4.390;2023-02-15T07:09:59;42.80;;;27.47;;
44732;SDS011;30460;50.836;4.390;2023-02-15T07:12:25;40.53;;;27.40;;
44732;SDS011;30460;50.836;4.390;2023-02-15T07:15:07;43.23;;;27.30;;
44732;SDS011;30460;50.836;4.390;2023-02-15T07:17:34;42.70;;;27.43;;
44732;SDS011;30460;50.836;4.390;2023-02-15T07:20:00;39.20;;;26.63;;
44732;SDS011;30460;50.836;4.390;2023-02-15T07:22:26;40.73;;;27.33;;
44732;SDS011;30460;50.836;4.390;2023-02-15T07:24:52;43.73;;;27.67;;
44732;SDS011;30460;50.836;4.390;2023-02-15T07:27:19;44.30;;;28.53;;
44732;SDS011;30460;50.836;4.390;2023-02-15T07:29:46;42.10;;;28.00;;
44732;SDS011;30460;50.836;4.390;2023-02-15T07:32:13;42.83;;;27.93;;
44732;SDS011;30460;50.836;4.390;2023-02-15T07:34:39;42.00;;;27.43;;
44732;SDS011;30460;50.836;4.390;2023-02-15T07:37:06;40.37;;;27.17;;
44732;SDS011;30460;50.836;4.390;2023-02-15T07:39:32;45.40;;;28.80;;
44732;SDS011;30460;50.836;4.390;2023-02-15T07:41:59;41.60;;;27.00;;
44732;SDS011;30460;50.836;4.390;2023-02-15T07:44:25;41.03;;;27.17;;
44732;SDS011;30460;50.836;4.390;2023-02-15T07:46:51;44.60;;;27.33;;
44732;SDS011;30460;50.836;4.390;2023-02-15T07:49:17;43.27;;;27.07;;
44732;SDS011;30460;50.836;4.390;2023-02-15T07:51:44;46.10;;;28.10;;
44732;SDS011;30460;50.836;4.390;2023-02-15T07:54:11;44.33;;;26.90;;
44732;SDS011;30460;50.836;4.390;2023-02-15T07:56:37;47.87;;;28.33;;
44732;SDS011;30460;50.836;4.390;2023-02-15T07:59:03;43.40;;;27.10;;
44732;SDS011;30460;50.836;4.390;2023-02-15T08:01:36;46.00;;;26.23;;
44732;SDS011;30460;50.836;4.390;2023-02-15T08:04:04;49.30;;;27.83;;
44732;SDS011;30460;50.836;4.390;2023-02-15T08:06:31;43.80;;;26.17;;
44732;SDS011;30460;50.836;4.390;2023-02-15T08:08:57;43.07;;;26.23;;
44732;SDS011;30460;50.836;4.390;2023-02-15T08:11:24;45.53;;;26.93;;
44732;SDS011;30460;50.836;4.390;2023-02-15T08:14:01;40.90;;;26.33;;
44732;SDS011;30460;50.836;4.390;2023-02-15T08:16:31;40.37;;;25.00;;
44732;SDS011;30460;50.836;4.390;2023-02-15T08:18:58;48.23;;;27.00;;
44732;SDS011;30460;50.836;4.390;2023-02-15T08:21:25;43.77;;;26.73;;
44732;SDS011;30460;50.836;4.390;2023-02-15T08:23:51;48.33;;;27.00;;
44732;SDS011;30460;50.836;4.390;2023-02-15T08:26:17;42.13;;;26.07;;
44732;SDS011;30460;50.836;4.390;2023-02-15T08:28:43;45.83;;;27.17;;
44732;SDS011;30460;50.836;4.390;2023-02-15T08:31:11;46.70;;;27.53;;
44732;SDS011;30460;50.836;4.390;2023-02-15T08:33:39;37.13;;;22.57;;
44732;SDS011;30460;50.836;4.390;2023-02-15T08:36:06;38.17;;;22.87;;
44732;SDS011;30460;50.836;4.390;2023-02-15T08:38:33;34.93;;;21.07;;
44732;SDS011;30460;50.836;4.390;2023-02-15T08:44:00;33.30;;;20.80;;
44732;SDS011;30460;50.836;4.390;2023-02-15T08:46:30;35.53;;;21.70;;
44732;SDS011;30460;50.836;4.390;2023-02-15T08:48:56;37.03;;;21.37;;
44732;SDS011;30460;50.836;4.390;2023-02-15T08:51:26;38.07;;;22.00;;
44732;SDS011;30460;50.836;4.390;2023-02-15T08:53:53;34.83;;;21.43;;
44732;SDS011;30460;50.836;4.390;2023-02-15T08:56:20;36.93;;;22.37;;
44732;SDS011;30460;50.836;4.390;2023-02-15T08:58:46;36.93;;;22.10;;
44732;SDS011;30460;50.836;4.390;2023-02-15T09:01:14;32.47;;;19.87;;
44732;SDS011;30460;50.836;4.390;2023-02-15T09:03:44;36.90;;;21.23;;
44732;SDS011;30460;50.836;4.390;2023-02-15T09:06:10;33.57;;;21.80;;
44732;SDS011;30460;50.836;4.390;2023-02-15T09:08:37;31.90;;;20.63;;
44732;SDS011;30460;50.836;4.390;2023-02-15T09:13:39;32.97;;;20.07;;
44732;SDS011;30460;50.836;4.390;2023-02-15T09:16:06;31.27;;;19.90;;
44732;SDS011;30460;50.836;4.390;2023-02-15T09:18:34;29.80;;;19.70;;
44732;SDS011;30460;50.836;4.390;2023-02-15T09:21:09;38.23;;;21.03;;
44732;SDS011;30460;50.836;4.390;2023-02-15T09:23:36;37.23;;;21.40;;
44732;SDS011;30460;50.836;4.390;2023-02-15T09:26:04;34.70;;;21.17;;
44732;SDS011;30460;50.836;4.390;2023-02-15T09:28:30;35.47;;;22.27;;
44732;SDS011;30460;50.836;4.390;2023-02-15T09:31:03;35.17;;;21.40;;
44732;SDS011;30460;50.836;4.390;2023-02-15T09:33:29;32.40;;;20.07;;
44732;SDS011;30460;50.836;4.390;2023-02-15T09:35:57;36.63;;;19.93;;
44732;SDS011;30460;50.836;4.390;2023-02-15T09:38:23;32.10;;;20.50;;
44732;SDS011;30460;50.836;4.390;2023-02-15T09:48:39;32.47;;;21.17;;
44732;SDS011;30460;50.836;4.390;2023-02-15T09:51:16;37.30;;;20.70;;
44732;SDS011;30460;50.836;4.390;2023-02-15T09:53:48;34.53;;;21.53;;
44732;SDS011;30460;50.836;4.390;2023-02-15T09:56:19;32.77;;;20.60;;
44732;SDS011;30460;50.836;4.390;2023-02-15T10:22:04;32.00;;;19.97;;
44732;SDS011;30460;50.836;4.390;2023-02-15T10:27:06;32.33;;;19.87;;
44732;SDS011;30460;50.836;4.390;2023-02-15T10:29:36;31.03;;;18.27;;
44732;SDS011;30460;50.836;4.390;2023-02-15T10:34:58;41.17;;;25.63;;
44732;SDS011;30460;50.836;4.390;2023-02-15T10:42:40;38.13;;;23.00;;
44732;SDS011;30460;50.836;4.390;2023-02-15T10:48:01;37.60;;;22.77;;
44732;SDS011;30460;50.836;4.390;2023-02-15T10:53:17;34.00;;;20.93;;
44732;SDS011;30460;50.836;4.390;2023-02-15T10:55:50;32.93;;;20.37;;
44732;SDS011;30460;50.836;4.390;2023-02-15T11:06:11;40.20;;;23.67;;
44732;SDS011;30460;50.836;4.390;2023-02-15T11:08:40;40.13;;;23.90;;
44732;SDS011;30460;50.836;4.390;2023-02-15T11:11:13;40.63;;;24.43;;
44732;SDS011;30460;50.836;4.390;2023-02-15T11:13:44;42.50;;;23.10;;
44732;SDS011;30460;50.836;4.390;2023-02-15T11:16:22;37.07;;;23.60;;
44732;SDS011;30460;50.836;4.390;2023-02-15T11:18:59;34.97;;;22.30;;
44732;SDS011;30460;50.836;4.390;2023-02-15T11:21:36;36.03;;;22.80;;
44732;SDS011;30460;50.836;4.390;2023-02-15T11:26:43;38.93;;;22.20;;
44732;SDS011;30460;50.836;4.390;2023-02-15T11:29:24;44.90;;;23.63;;
44732;SDS011;30460;50.836;4.390;2023-02-15T11:34:53;39.17;;;24.07;;
44732;SDS011;30460;50.836;4.390;2023-02-15T11:37:23;38.40;;;23.00;;
44732;SDS011;30460;50.836;4.390;2023-02-15T11:39:52;38.07;;;24.30;;
44732;SDS011;30460;50.836;4.390;2023-02-15T11:42:20;38.57;;;23.70;;
44732;SDS011;30460;50.836;4.390;2023-02-15T11:47:13;42.27;;;24.80;;
44732;SDS011;30460;50.836;4.390;2023-02-15T11:49:40;42.10;;;26.20;;
44732;SDS011;30460;50.836;4.390;2023-02-15T11:52:06;40.07;;;24.93;;
44732;SDS011;30460;50.836;4.390;2023-02-15T11:54:34;40.33;;;24.77;;
44732;SDS011;30460;50.836;4.390;2023-02-15T11:57:03;38.37;;;24.43;;
44732;SDS011;30460;50.836;4.390;2023-02-15T11:59:34;30.57;;;19.57;;
44732;SDS011;30460;50.836;4.390;2023-02-15T12:02:02;40.50;;;24.10;;
44732;SDS011;30460;50.836;4.390;2023-02-15T12:04:30;37.80;;;25.20;;
44732;SDS011;30460;50.836;4.390;2023-02-15T12:06:59;42.70;;;24.47;;
44732;SDS011;30460;50.836;4.390;2023-02-15T12:09:48;38.57;;;24.90;;
44732;SDS011;30460;50.836;4.390;2023-02-15T12:12:21;39.87;;;25.43;;
44732;SDS011;30460;50.836;4.390;2023-02-15T12:14:49;38.80;;;24.70;;
44732;SDS011;30460;50.836;4.390;2023-02-15T12:17:15;41.43;;;25.10;;
44732;SDS011;30460;50.836;4.390;2023-02-15T12:19:41;40.03;;;25.73;;
44732;SDS011;30460;50.836;4.390;2023-02-15T12:22:17;37.73;;;25.43;;
44732;SDS011;30460;50.836;4.390;2023-02-15T12:24:45;48.43;;;27.40;;
44732;SDS011;30460;50.836;4.390;2023-02-15T12:27:17;44.57;;;26.73;;
44732;SDS011;30460;50.836;4.390;2023-02-15T12:29:53;43.87;;;27.47;;
44732;SDS011;30460;50.836;4.390;2023-02-15T12:32:22;44.93;;;27.00;;
44732;SDS011;30460;50.836;4.390;2023-02-15T12:34:50;47.57;;;26.30;;
44732;SDS011;30460;50.836;4.390;2023-02-15T12:39:57;44.77;;;27.87;;
44732;SDS011;30460;50.836;4.390;2023-02-15T12:42:24;46.33;;;27.40;;
44732;SDS011;30460;50.836;4.390;2023-02-15T12:44:54;45.93;;;27.97;;
44732;SDS011;30460;50.836;4.390;2023-02-15T12:47:20;42.07;;;27.50;;
44732;SDS011;30460;50.836;4.390;2023-02-15T12:50:08;45.50;;;27.50;;
44732;SDS011;30460;50.836;4.390;2023-02-15T12:52:41;41.57;;;27.27;;
44732;SDS011;30460;50.836;4.390;2023-02-15T12:55:11;40.77;;;26.60;;
44732;SDS011;30460;50.836;4.390;2023-02-15T12:57:44;46.07;;;28.83;;
44732;SDS011;30460;50.836;4.390;2023-02-15T13:02:47;42.03;;;26.70;;
44732;SDS011;30460;50.836;4.390;2023-02-15T13:07:48;47.13;;;28.50;;
44732;SDS011;30460;50.836;4.390;2023-02-15T13:10:52;43.63;;;27.43;;
44732;SDS011;30460;50.836;4.390;2023-02-15T13:13:25;42.93;;;26.83;;
44732;SDS011;30460;50.836;4.390;2023-02-15T13:15:52;42.17;;;27.00;;
44732;SDS011;30460;50.836;4.390;2023-02-15T13:18:30;42.97;;;27.20;;
44732;SDS011;30460;50.836;4.390;2023-02-15T13:20:57;42.10;;;28.00;;
44732;SDS011;30460;50.836;4.390;2023-02-15T13:23:28;39.57;;;26.33;;
44732;SDS011;30460;50.836;4.390;2023-02-15T13:25:56;44.33;;;27.47;;
44732;SDS011;30460;50.836;4.390;2023-02-15T13:28:26;41.00;;;27.97;;
44732;SDS011;30460;50.836;4.390;2023-02-15T13:30:54;43.57;;;27.10;;
44732;SDS011;30460;50.836;4.390;2023-02-15T13:33:28;46.37;;;28.47;;
44732;SDS011;30460;50.836;4.390;2023-02-15T13:41:09;43.60;;;27.37;;
44732;SDS011;30460;50.836;4.390;2023-02-15T13:48:44;47.87;;;28.37;;
44732;SDS011;30460;50.836;4.390;2023-02-15T13:51:18;43.83;;;28.10;;
44732;SDS011;30460;50.836;4.390;2023-02-15T13:54:03;42.63;;;28.73;;
44732;SDS011;30460;50.836;4.390;2023-02-15T13:56:45;44.77;;;30.20;;
44732;SDS011;30460;50.836;4.390;2023-02-15T14:01:42;47.50;;;31.17;;
44732;SDS011;30460;50.836;4.390;2023-02-15T14:19:46;52.57;;;31.77;;
44732;SDS011;30460;50.836;4.390;2023-02-15T14:22:21;48.57;;;31.37;;
44732;SDS011;30460;50.836;4.390;2023-02-15T14:30:20;48.70;;;31.50;;
44732;SDS011;30460;50.836;4.390;2023-02-15T14:32:51;50.77;;;31.77;;
44732;SDS011;30460;50.836;4.390;2023-02-15T14:35:20;51.27;;;31.90;;
44732;SDS011;30460;50.836;4.390;2023-02-15T14:48:37;51.90;;;32.83;;
44732;SDS011;30460;50.836;4.390;2023-02-15T14:51:05;50.40;;;32.13;;
44732;SDS011;30460;50.836;4.390;2023-02-15T14:53:38;53.13;;;32.67;;
44732;SDS011;30460;50.836;4.390;2023-02-15T15:01:39;48.53;;;30.87;;
44732;SDS011;30460;50.836;4.390;2023-02-15T15:04:06;54.17;;;32.30;;
44732;SDS011;30460;50.836;4.390;2023-02-15T15:06:34;50.53;;;33.17;;
44732;SDS011;30460;50.836;4.390;2023-02-15T15:09:08;50.77;;;31.87;;
44732;SDS011;30460;50.836;4.390;2023-02-15T15:11:41;53.57;;;34.20;;
44732;SDS011;30460;50.836;4.390;2023-02-15T15:14:07;56.67;;;33.63;;
44732;SDS011;30460;50.836;4.390;2023-02-15T15:16:47;46.57;;;29.83;;
44732;SDS011;30460;50.836;4.390;2023-02-15T15:19:56;50.77;;;33.67;;
44732;SDS011;30460;50.836;4.390;2023-02-15T15:22:03;57.87;;;37.07;;
44732;SDS011;30460;50.836;4.390;2023-02-15T15:29:49;57.90;;;35.40;;
44732;SDS011;30460;50.836;4.390;2023-02-15T15:32:15;52.37;;;33.80;;
44732;SDS011;30460;50.836;4.390;2023-02-15T15:34:56;53.37;;;35.03;;
44732;SDS011;30460;50.836;4.390;2023-02-15T15:42:31;54.37;;;34.43;;
44732;SDS011;30460;50.836;4.390;2023-02-15T15:45:23;53.43;;;34.53;;
44732;SDS011;30460;50.836;4.390;2023-02-15T15:50:43;54.27;;;35.43;;
44732;SDS011;30460;50.836;4.390;2023-02-15T15:53:20;59.00;;;32.53;;
44732;SDS011;30460;50.836;4.390;2023-02-15T15:55:47;54.67;;;34.60;;
44732;SDS011;30460;50.836;4.390;2023-02-15T15:58:16;54.43;;;35.13;;
44732;SDS011;30460;50.836;4.390;2023-02-15T16:01:14;55.30;;;34.97;;
44732;SDS011;30460;50.836;4.390;2023-02-15T16:03:53;54.57;;;34.43;;
44732;SDS011;30460;50.836;4.390;2023-02-15T16:06:54;45.57;;;28.97;;
44732;SDS011;30460;50.836;4.390;2023-02-15T16:11:43;53.97;;;35.67;;
44732;SDS011;30460;50.836;4.390;2023-02-15T16:14:14;55.07;;;34.63;;
44732;SDS011;30460;50.836;4.390;2023-02-15T16:16:41;55.60;;;34.40;;
44732;SDS011;30460;50.836;4.390;2023-02-15T16:19:22;53.63;;;34.70;;
44732;SDS011;30460;50.836;4.390;2023-02-15T16:24:34;54.27;;;33.60;;
44732;SDS011;30460;50.836;4.390;2023-02-15T16:27:08;55.80;;;33.23;;
44732;SDS011;30460;50.836;4.390;2023-02-15T16:29:37;55.17;;;34.33;;
44732;SDS011;30460;50.836;4.390;2023-02-15T16:32:04;52.40;;;33.30;;
44732;SDS011;30460;50.836;4.390;2023-02-15T16:34:30;54.73;;;34.33;;
44732;SDS011;30460;50.836;4.390;2023-02-15T16:37:16;52.87;;;33.30;;
44732;SDS011;30460;50.836;4.390;2023-02-15T16:39:42;53.67;;;34.40;;
44732;SDS011;30460;50.836;4.390;2023-02-15T16:42:09;54.57;;;33.97;;
44732;SDS011;30460;50.836;4.390;2023-02-15T16:44:36;59.03;;;36.73;;
44732;SDS011;30460;50.836;4.390;2023-02-15T16:47:02;51.73;;;33.07;;
44732;SDS011;30460;50.836;4.390;2023-02-15T16:49:29;58.37;;;38.00;;
44732;SDS011;30460;50.836;4.390;2023-02-15T16:54:24;58.43;;;35.53;;
44732;SDS011;30460;50.836;4.390;2023-02-15T16:56:51;52.50;;;33.37;;
44732;SDS011;30460;50.836;4.390;2023-02-15T16:59:25;53.47;;;34.00;;
44732;SDS011;30460;50.836;4.390;2023-02-15T17:01:54;49.77;;;32.03;;
44732;SDS011;30460;50.836;4.390;2023-02-15T17:07:00;53.93;;;34.27;;
44732;SDS011;30460;50.836;4.390;2023-02-15T17:09:26;53.47;;;34.43;;
44732;SDS011;30460;50.836;4.390;2023-02-15T17:11:52;51.33;;;33.90;;
44732;SDS011;30460;50.836;4.390;2023-02-15T17:14:19;52.43;;;34.53;;
44732;SDS011;30460;50.836;4.390;2023-02-15T17:17:02;55.53;;;34.43;;
44732;SDS011;30460;50.836;4.390;2023-02-15T17:19:32;51.07;;;32.77;;
44732;SDS011;30460;50.836;4.390;2023-02-15T17:22:05;56.80;;;34.97;;
44732;SDS011;30460;50.836;4.390;2023-02-15T17:24:35;56.73;;;35.40;;
44732;SDS011;30460;50.836;4.390;2023-02-15T17:27:14;60.70;;;33.87;;
44732;SDS011;30460;50.836;4.390;2023-02-15T17:30:00;54.07;;;34.33;;
44732;SDS011;30460;50.836;4.390;2023-02-15T17:32:28;52.53;;;33.47;;